sensor_id;sensor_type;location;lat;lon;timestamp;temperature;humidity
73121;DHT22;61307;49.628;-1.624;2024-03-08T00:00:28;21.90;36.00
73121;DHT22;61307;49.628;-1.624;2024-03-08T00:02:57;21.90;35.90
73121;DHT22;61307;49.628;-1.624;2024-03-08T00:05:28;21.90;36.00
73121;DHT22;61307;49.628;-1.624;2024-03-08T00:07:55;21.90;36.00
73121;DHT22;61307;49.628;-1.624;2024-03-08T00:10:22;21.90;36.00
73121;DHT22;61307;49.628;-1.624;2024-03-08T00:12:49;21.90;35.90
73121;DHT22;61307;49.628;-1.624;2024-03-08T00:15:17;21.90;35.90
73121;DHT22;61307;49.628;-1.624;2024-03-08T00:17:44;21.90;35.90
73121;DHT22;61307;49.628;-1.624;2024-03-08T00:20:11;21.90;35.90
73121;DHT22;61307;49.628;-1.624;2024-03-08T00:22:40;21.90;35.90
73121;DHT22;61307;49.628;-1.624;2024-03-08T00:25:08;21.90;35.90
73121;DHT22;61307;49.628;-1.624;2024-03-08T00:27:35;21.90;35.90
73121;DHT22;61307;49.628;-1.624;2024-03-08T00:30:03;21.90;35.90
73121;DHT22;61307;49.628;-1.624;2024-03-08T00:32:30;21.80;35.80
73121;DHT22;61307;49.628;-1.624;2024-03-08T00:34:57;21.90;35.90
73121;DHT22;61307;49.628;-1.624;2024-03-08T00:37:24;21.90;35.90
73121;DHT22;61307;49.628;-1.624;2024-03-08T00:39:52;21.90;35.90
73121;DHT22;61307;49.628;-1.624;2024-03-08T00:42:20;21.80;35.80
73121;DHT22;61307;49.628;-1.624;2024-03-08T00:44:47;21.90;36.60
73121;DHT22;61307;49.628;-1.624;2024-03-08T00:47:16;21.80;35.80
73121;DHT22;61307;49.628;-1.624;2024-03-08T00:49:43;21.80;35.80
73121;DHT22;61307;49.628;-1.624;2024-03-08T00:52:10;21.80;35.80
73121;DHT22;61307;49.628;-1.624;2024-03-08T00:54:37;21.80;35.80
73121;DHT22;61307;49.628;-1.624;2024-03-08T00:57:05;21.80;35.80
73121;DHT22;61307;49.628;-1.624;2024-03-08T00:59:32;21.80;35.80
73121;DHT22;61307;49.628;-1.624;2024-03-08T01:01:59;21.80;35.80
73121;DHT22;61307;49.628;-1.624;2024-03-08T01:04:26;21.80;35.80
73121;DHT22;61307;49.628;-1.624;2024-03-08T01:06:54;21.80;35.80
73121;DHT22;61307;49.628;-1.624;2024-03-08T01:09:21;21.80;35.80
73121;DHT22;61307;49.628;-1.624;2024-03-08T01:11:48;21.80;35.80
73121;DHT22;61307;49.628;-1.624;2024-03-08T01:14:17;21.80;35.80
73121;DHT22;61307;49.628;-1.624;2024-03-08T01:16:44;21.80;35.80
73121;DHT22;61307;49.628;-1.624;2024-03-08T01:19:11;21.80;35.80
73121;DHT22;61307;49.628;-1.624;2024-03-08T01:21:39;21.80;35.70
73121;DHT22;61307;49.628;-1.624;2024-03-08T01:24:06;21.80;35.70
73121;DHT22;61307;49.628;-1.624;2024-03-08T01:26:32;21.80;35.70
73121;DHT22;61307;49.628;-1.624;2024-03-08T01:29:00;21.80;35.70
73121;DHT22;61307;49.628;-1.624;2024-03-08T01:31:30;21.80;35.60
73121;DHT22;61307;49.628;-1.624;2024-03-08T01:33:57;21.80;35.70
73121;DHT22;61307;49.628;-1.624;2024-03-08T01:36:24;21.80;35.60
73121;DHT22;61307;49.628;-1.624;2024-03-08T01:38:51;21.80;35.60
73121;DHT22;61307;49.628;-1.624;2024-03-08T01:41:18;21.80;35.60
73121;DHT22;61307;49.628;-1.624;2024-03-08T01:43:45;21.80;35.60
73121;DHT22;61307;49.628;-1.624;2024-03-08T01:46:15;21.80;35.50
73121;DHT22;61307;49.628;-1.624;2024-03-08T01:48:44;21.80;36.30
73121;DHT22;61307;49.628;-1.624;2024-03-08T01:51:12;21.80;35.50
73121;DHT22;61307;49.628;-1.624;2024-03-08T01:53:40;21.80;35.60
73121;DHT22;61307;49.628;-1.624;2024-03-08T01:56:11;21.80;35.50
73121;DHT22;61307;49.628;-1.624;2024-03-08T01:58:38;21.80;35.50
73121;DHT22;61307;49.628;-1.624;2024-03-08T02:01:07;21.80;35.50
73121;DHT22;61307;49.628;-1.624;2024-03-08T02:03:34;21.80;35.50
73121;DHT22;61307;49.628;-1.624;2024-03-08T02:06:03;21.80;35.50
73121;DHT22;61307;49.628;-1.624;2024-03-08T02:08:33;21.80;35.50
73121;DHT22;61307;49.628;-1.624;2024-03-08T02:11:00;21.80;35.50
73121;DHT22;61307;49.628;-1.624;2024-03-08T02:13:28;21.80;35.50
73121;DHT22;61307;49.628;-1.624;2024-03-08T02:15:55;21.80;35.50
73121;DHT22;61307;49.628;-1.624;2024-03-08T02:18:25;21.80;35.50
73121;DHT22;61307;49.628;-1.624;2024-03-08T02:20:53;21.80;36.20
73121;DHT22;61307;49.628;-1.624;2024-03-08T02:23:21;21.70;35.40
73121;DHT22;61307;49.628;-1.624;2024-03-08T02:25:50;21.80;35.50
73121;DHT22;61307;49.628;-1.624;2024-03-08T02:28:17;21.80;35.50
73121;DHT22;61307;49.628;-1.624;2024-03-08T02:30:45;21.80;35.40
73121;DHT22;61307;49.628;-1.624;2024-03-08T02:33:14;21.80;35.40
73121;DHT22;61307;49.628;-1.624;2024-03-08T02:35:42;21.80;35.40
73121;DHT22;61307;49.628;-1.624;2024-03-08T02:38:12;21.80;35.40
73121;DHT22;61307;49.628;-1.624;2024-03-08T02:40:41;21.80;35.40
73121;DHT22;61307;49.628;-1.624;2024-03-08T02:43:08;21.80;35.40
73121;DHT22;61307;49.628;-1.624;2024-03-08T02:45:35;21.80;35.40
73121;DHT22;61307;49.628;-1.624;2024-03-08T02:48:03;21.80;35.40
73121;DHT22;61307;49.628;-1.624;2024-03-08T02:50:30;21.80;35.40
73121;DHT22;61307;49.628;-1.624;2024-03-08T02:52:56;21.80;35.40
73121;DHT22;61307;49.628;-1.624;2024-03-08T02:55:25;21.70;35.30
73121;DHT22;61307;49.628;-1.624;2024-03-08T02:57:52;21.80;35.40
73121;DHT22;61307;49.628;-1.624;2024-03-08T03:00:20;21.80;35.40
73121;DHT22;61307;49.628;-1.624;2024-03-08T03:02:48;21.80;35.40
73121;DHT22;61307;49.628;-1.624;2024-03-08T03:05:17;21.80;35.40
73121;DHT22;61307;49.628;-1.624;2024-03-08T03:07:45;21.70;35.20
73121;DHT22;61307;49.628;-1.624;2024-03-08T03:10:12;21.70;35.30
73121;DHT22;61307;49.628;-1.624;2024-03-08T03:12:44;21.80;35.30
73121;DHT22;61307;49.628;-1.624;2024-03-08T03:15:11;21.80;35.30
73121;DHT22;61307;49.628;-1.624;2024-03-08T03:17:39;21.70;35.20
73121;DHT22;61307;49.628;-1.624;2024-03-08T03:20:08;21.70;35.20
73121;DHT22;61307;49.628;-1.624;2024-03-08T03:22:39;21.70;35.20
73121;DHT22;61307;49.628;-1.624;2024-03-08T03:25:07;21.70;35.20
73121;DHT22;61307;49.628;-1.624;2024-03-08T03:27:35;21.70;35.20
73121;DHT22;61307;49.628;-1.624;2024-03-08T03:30:04;21.70;35.10
73121;DHT22;61307;49.628;-1.624;2024-03-08T03:33:00;21.70;35.10
73121;DHT22;61307;49.628;-1.624;2024-03-08T03:35:27;21.70;35.10
73121;DHT22;61307;49.628;-1.624;2024-03-08T03:37:54;21.80;35.20
73121;DHT22;61307;49.628;-1.624;2024-03-08T03:40:31;21.70;35.10
73121;DHT22;61307;49.628;-1.624;2024-03-08T03:42:58;21.70;35.00
73121;DHT22;61307;49.628;-1.624;2024-03-08T03:45:25;21.80;35.10
73121;DHT22;61307;49.628;-1.624;2024-03-08T03:47:52;21.70;35.00
73121;DHT22;61307;49.628;-1.624;2024-03-08T03:50:21;21.70;35.00
73121;DHT22;61307;49.628;-1.624;2024-03-08T03:52:49;21.80;35.10
73121;DHT22;61307;49.628;-1.624;2024-03-08T03:55:16;21.80;35.00
73121;DHT22;61307;49.628;-1.624;2024-03-08T03:57:43;21.80;35.00
73121;DHT22;61307;49.628;-1.624;2024-03-08T04:00:12;21.70;34.90
73121;DHT22;61307;49.628;-1.624;2024-03-08T04:02:39;21.70;34.90
73121;DHT22;61307;49.628;-1.624;2024-03-08T04:05:08;21.70;35.00
73121;DHT22;61307;49.628;-1.624;2024-03-08T04:07:36;21.80;35.00
73121;DHT22;61307;49.628;-1.624;2024-03-08T04:10:05;21.80;35.00
73121;DHT22;61307;49.628;-1.624;2024-03-08T04:12:32;21.80;35.00
73121;DHT22;61307;49.628;-1.624;2024-03-08T04:14:59;21.70;34.90
73121;DHT22;61307;49.628;-1.624;2024-03-08T04:17:26;21.70;34.90
73121;DHT22;61307;49.628;-1.624;2024-03-08T04:19:53;21.70;34.90
73121;DHT22;61307;49.628;-1.624;2024-03-08T04:22:20;21.70;34.90
73121;DHT22;61307;49.628;-1.624;2024-03-08T04:24:49;21.70;35.00
73121;DHT22;61307;49.628;-1.624;2024-03-08T04:27:16;21.70;34.90
73121;DHT22;61307;49.628;-1.624;2024-03-08T04:29:43;21.70;34.90
73121;DHT22;61307;49.628;-1.624;2024-03-08T04:32:10;21.70;34.90
73121;DHT22;61307;49.628;-1.624;2024-03-08T04:34:39;21.70;34.90
73121;DHT22;61307;49.628;-1.624;2024-03-08T04:37:05;21.70;34.80
73121;DHT22;61307;49.628;-1.624;2024-03-08T04:39:32;21.70;34.80
73121;DHT22;61307;49.628;-1.624;2024-03-08T04:42:02;21.70;34.90
73121;DHT22;61307;49.628;-1.624;2024-03-08T04:44:30;21.70;34.90
73121;DHT22;61307;49.628;-1.624;2024-03-08T04:46:57;21.70;34.90
73121;DHT22;61307;49.628;-1.624;2024-03-08T04:49:24;21.70;34.90
73121;DHT22;61307;49.628;-1.624;2024-03-08T04:51:51;21.70;34.90
73121;DHT22;61307;49.628;-1.624;2024-03-08T04:54:18;21.70;34.90
73121;DHT22;61307;49.628;-1.624;2024-03-08T04:56:45;21.60;34.80
73121;DHT22;61307;49.628;-1.624;2024-03-08T04:59:13;21.70;34.90
73121;DHT22;61307;49.628;-1.624;2024-03-08T05:01:40;21.70;34.90
73121;DHT22;61307;49.628;-1.624;2024-03-08T05:04:07;21.70;34.90
73121;DHT22;61307;49.628;-1.624;2024-03-08T05:06:33;21.60;34.80
73121;DHT22;61307;49.628;-1.624;2024-03-08T05:09:01;21.70;34.90
73121;DHT22;61307;49.628;-1.624;2024-03-08T05:11:39;21.70;34.80
73121;DHT22;61307;49.628;-1.624;2024-03-08T05:14:05;21.60;34.70
73121;DHT22;61307;49.628;-1.624;2024-03-08T05:16:34;21.70;34.80
73121;DHT22;61307;49.628;-1.624;2024-03-08T05:19:01;21.60;34.80
73121;DHT22;61307;49.628;-1.624;2024-03-08T05:21:28;21.60;35.40
73121;DHT22;61307;49.628;-1.624;2024-03-08T05:23:55;21.60;34.70
73121;DHT22;61307;49.628;-1.624;2024-03-08T05:26:22;21.60;34.70
73121;DHT22;61307;49.628;-1.624;2024-03-08T05:28:49;21.60;34.70
73121;DHT22;61307;49.628;-1.624;2024-03-08T05:31:19;21.70;34.80
73121;DHT22;61307;49.628;-1.624;2024-03-08T05:33:47;21.70;34.70
73121;DHT22;61307;49.628;-1.624;2024-03-08T05:36:14;21.70;34.70
73121;DHT22;61307;49.628;-1.624;2024-03-08T05:38:42;21.60;34.70
73121;DHT22;61307;49.628;-1.624;2024-03-08T05:41:09;21.70;34.70
73121;DHT22;61307;49.628;-1.624;2024-03-08T05:43:37;21.70;34.70
73121;DHT22;61307;49.628;-1.624;2024-03-08T05:46:04;21.60;34.70
73121;DHT22;61307;49.628;-1.624;2024-03-08T05:48:31;21.60;34.60
73121;DHT22;61307;49.628;-1.624;2024-03-08T05:51:00;21.70;34.70
73121;DHT22;61307;49.628;-1.624;2024-03-08T05:53:27;21.60;34.60
73121;DHT22;61307;49.628;-1.624;2024-03-08T05:55:57;21.60;34.50
73121;DHT22;61307;49.628;-1.624;2024-03-08T05:58:24;21.70;34.60
73121;DHT22;61307;49.628;-1.624;2024-03-08T06:00:51;21.70;34.60
73121;DHT22;61307;49.628;-1.624;2024-03-08T06:03:17;21.60;34.50
73121;DHT22;61307;49.628;-1.624;2024-03-08T06:05:47;21.70;34.60
73121;DHT22;61307;49.628;-1.624;2024-03-08T06:08:15;21.70;34.60
73121;DHT22;61307;49.628;-1.624;2024-03-08T06:10:42;21.70;34.70
73121;DHT22;61307;49.628;-1.624;2024-03-08T06:13:09;21.60;34.60
73121;DHT22;61307;49.628;-1.624;2024-03-08T06:15:37;21.60;34.50
73121;DHT22;61307;49.628;-1.624;2024-03-08T06:18:04;21.60;34.50
73121;DHT22;61307;49.628;-1.624;2024-03-08T06:20:33;21.60;34.50
73121;DHT22;61307;49.628;-1.624;2024-03-08T06:23:00;21.60;34.50
73121;DHT22;61307;49.628;-1.624;2024-03-08T06:25:28;21.60;34.60
73121;DHT22;61307;49.628;-1.624;2024-03-08T06:27:55;21.60;34.50
73121;DHT22;61307;49.628;-1.624;2024-03-08T06:30:22;21.60;34.60
73121;DHT22;61307;49.628;-1.624;2024-03-08T06:32:49;21.60;34.60
73121;DHT22;61307;49.628;-1.624;2024-03-08T06:35:15;21.60;34.60
73121;DHT22;61307;49.628;-1.624;2024-03-08T06:37:42;21.60;34.50
73121;DHT22;61307;49.628;-1.624;2024-03-08T06:40:10;21.60;34.50
73121;DHT22;61307;49.628;-1.624;2024-03-08T06:42:40;21.60;34.50
73121;DHT22;61307;49.628;-1.624;2024-03-08T06:45:08;21.50;34.40
73121;DHT22;61307;49.628;-1.624;2024-03-08T06:47:35;21.50;34.50
73121;DHT22;61307;49.628;-1.624;2024-03-08T06:50:02;21.50;34.40
73121;DHT22;61307;49.628;-1.624;2024-03-08T06:52:31;21.50;34.50
73121;DHT22;61307;49.628;-1.624;2024-03-08T06:54:58;21.50;34.40
73121;DHT22;61307;49.628;-1.624;2024-03-08T06:57:27;21.50;34.40
73121;DHT22;61307;49.628;-1.624;2024-03-08T06:59:56;21.50;34.40
73121;DHT22;61307;49.628;-1.624;2024-03-08T07:02:23;21.50;34.40
73121;DHT22;61307;49.628;-1.624;2024-03-08T07:04:51;21.50;34.40
73121;DHT22;61307;49.628;-1.624;2024-03-08T07:07:18;21.50;34.40
73121;DHT22;61307;49.628;-1.624;2024-03-08T07:09:46;21.50;34.40
73121;DHT22;61307;49.628;-1.624;2024-03-08T07:12:15;21.50;34.50
73121;DHT22;61307;49.628;-1.624;2024-03-08T07:14:42;21.50;34.50
73121;DHT22;61307;49.628;-1.624;2024-03-08T07:17:12;21.50;34.40
73121;DHT22;61307;49.628;-1.624;2024-03-08T07:19:39;21.50;34.50
73121;DHT22;61307;49.628;-1.624;2024-03-08T07:22:06;21.50;34.40
73121;DHT22;61307;49.628;-1.624;2024-03-08T07:24:35;21.50;34.40
73121;DHT22;61307;49.628;-1.624;2024-03-08T07:27:21;21.50;34.40
73121;DHT22;61307;49.628;-1.624;2024-03-08T07:29:48;21.50;34.40
73121;DHT22;61307;49.628;-1.624;2024-03-08T07:32:16;21.50;34.40
73121;DHT22;61307;49.628;-1.624;2024-03-08T07:34:47;21.60;34.40
73121;DHT22;61307;49.628;-1.624;2024-03-08T07:37:16;21.50;34.40
73121;DHT22;61307;49.628;-1.624;2024-03-08T07:39:43;21.60;34.40
73121;DHT22;61307;49.628;-1.624;2024-03-08T07:42:10;21.60;34.40
73121;DHT22;61307;49.628;-1.624;2024-03-08T07:44:37;21.60;34.40
73121;DHT22;61307;49.628;-1.624;2024-03-08T07:47:04;21.50;34.30
73121;DHT22;61307;49.628;-1.624;2024-03-08T07:49:34;21.60;34.40
73121;DHT22;61307;49.628;-1.624;2024-03-08T07:52:01;21.60;34.30
73121;DHT22;61307;49.628;-1.624;2024-03-08T07:54:30;21.60;34.40
73121;DHT22;61307;49.628;-1.624;2024-03-08T07:56:57;21.70;34.40
73121;DHT22;61307;49.628;-1.624;2024-03-08T07:59:23;21.70;34.30
73121;DHT22;61307;49.628;-1.624;2024-03-08T08:01:50;21.70;34.20
73121;DHT22;61307;49.628;-1.624;2024-03-08T08:04:18;21.80;34.20
73121;DHT22;61307;49.628;-1.624;2024-03-08T08:06:51;21.80;34.30
73121;DHT22;61307;49.628;-1.624;2024-03-08T08:09:20;21.80;34.20
73121;DHT22;61307;49.628;-1.624;2024-03-08T08:11:54;21.90;34.50
73121;DHT22;61307;49.628;-1.624;2024-03-08T08:14:21;21.90;34.60
73121;DHT22;61307;49.628;-1.624;2024-03-08T08:16:48;21.90;34.70
73121;DHT22;61307;49.628;-1.624;2024-03-08T08:19:18;22.00;34.70
73121;DHT22;61307;49.628;-1.624;2024-03-08T08:21:45;22.00;34.80
73121;DHT22;61307;49.628;-1.624;2024-03-08T08:24:14;22.00;35.00
73121;DHT22;61307;49.628;-1.624;2024-03-08T08:26:41;22.10;35.10
73121;DHT22;61307;49.628;-1.624;2024-03-08T08:29:10;22.10;34.90
73121;DHT22;61307;49.628;-1.624;2024-03-08T08:31:37;22.10;34.90
73121;DHT22;61307;49.628;-1.624;2024-03-08T08:34:03;22.10;34.90
73121;DHT22;61307;49.628;-1.624;2024-03-08T08:36:32;22.20;35.00
73121;DHT22;61307;49.628;-1.624;2024-03-08T08:38:59;22.30;35.00
73121;DHT22;61307;49.628;-1.624;2024-03-08T08:41:30;22.30;35.00
73121;DHT22;61307;49.628;-1.624;2024-03-08T08:43:57;22.30;35.00
73121;DHT22;61307;49.628;-1.624;2024-03-08T08:46:24;22.30;34.90
73121;DHT22;61307;49.628;-1.624;2024-03-08T08:48:51;22.30;34.80
73121;DHT22;61307;49.628;-1.624;2024-03-08T08:51:18;22.30;34.90
73121;DHT22;61307;49.628;-1.624;2024-03-08T08:53:45;22.30;35.10
73121;DHT22;61307;49.628;-1.624;2024-03-08T08:56:13;22.30;35.20
73121;DHT22;61307;49.628;-1.624;2024-03-08T08:58:42;22.30;36.00
73121;DHT22;61307;49.628;-1.624;2024-03-08T09:01:10;22.30;35.50
73121;DHT22;61307;49.628;-1.624;2024-03-08T09:03:37;22.30;35.70
73121;DHT22;61307;49.628;-1.624;2024-03-08T09:06:06;22.30;35.70
73121;DHT22;61307;49.628;-1.624;2024-03-08T09:08:35;22.40;35.80
73121;DHT22;61307;49.628;-1.624;2024-03-08T09:11:03;22.40;35.80
73121;DHT22;61307;49.628;-1.624;2024-03-08T09:13:31;22.40;35.70
73121;DHT22;61307;49.628;-1.624;2024-03-08T09:16:01;22.40;35.80
73121;DHT22;61307;49.628;-1.624;2024-03-08T09:18:31;22.40;35.80
73121;DHT22;61307;49.628;-1.624;2024-03-08T09:20:59;22.50;35.90
73121;DHT22;61307;49.628;-1.624;2024-03-08T09:23:26;22.50;35.90
73121;DHT22;61307;49.628;-1.624;2024-03-08T09:25:55;22.50;35.80
73121;DHT22;61307;49.628;-1.624;2024-03-08T09:28:22;22.50;35.70
73121;DHT22;61307;49.628;-1.624;2024-03-08T09:30:51;22.60;35.90
73121;DHT22;61307;49.628;-1.624;2024-03-08T09:33:19;22.60;35.80
73121;DHT22;61307;49.628;-1.624;2024-03-08T09:35:47;22.60;35.80
73121;DHT22;61307;49.628;-1.624;2024-03-08T09:38:14;22.60;35.70
73121;DHT22;61307;49.628;-1.624;2024-03-08T09:40:41;22.60;35.60
73121;DHT22;61307;49.628;-1.624;2024-03-08T09:43:09;22.60;35.50
73121;DHT22;61307;49.628;-1.624;2024-03-08T09:45:37;22.60;35.60
73121;DHT22;61307;49.628;-1.624;2024-03-08T09:48:10;22.60;35.60
73121;DHT22;61307;49.628;-1.624;2024-03-08T09:50:39;22.60;35.60
73121;DHT22;61307;49.628;-1.624;2024-03-08T09:53:06;22.60;35.50
73121;DHT22;61307;49.628;-1.624;2024-03-08T09:55:35;22.50;35.50
73121;DHT22;61307;49.628;-1.624;2024-03-08T09:58:05;22.60;35.50
73121;DHT22;61307;49.628;-1.624;2024-03-08T10:00:50;22.60;35.50
73121;DHT22;61307;49.628;-1.624;2024-03-08T10:03:18;22.60;35.40
73121;DHT22;61307;49.628;-1.624;2024-03-08T10:05:47;22.60;35.40
73121;DHT22;61307;49.628;-1.624;2024-03-08T10:08:14;22.60;35.40
73121;DHT22;61307;49.628;-1.624;2024-03-08T10:10:41;22.60;35.40
73121;DHT22;61307;49.628;-1.624;2024-03-08T10:13:09;22.50;35.30
73121;DHT22;61307;49.628;-1.624;2024-03-08T10:15:39;22.60;35.50
73121;DHT22;61307;49.628;-1.624;2024-03-08T10:18:06;22.50;35.40
73121;DHT22;61307;49.628;-1.624;2024-03-08T10:20:34;22.60;35.50
73121;DHT22;61307;49.628;-1.624;2024-03-08T10:23:03;22.60;35.60
73121;DHT22;61307;49.628;-1.624;2024-03-08T10:25:31;22.60;35.60
73121;DHT22;61307;49.628;-1.624;2024-03-08T10:27:58;22.60;36.20
73121;DHT22;61307;49.628;-1.624;2024-03-08T10:30:24;22.60;35.40
73121;DHT22;61307;49.628;-1.624;2024-03-08T10:32:51;22.70;35.40
73121;DHT22;61307;49.628;-1.624;2024-03-08T10:35:18;22.70;35.50
73121;DHT22;61307;49.628;-1.624;2024-03-08T10:37:48;22.70;35.40
73121;DHT22;61307;49.628;-1.624;2024-03-08T10:40:18;22.70;35.40
73121;DHT22;61307;49.628;-1.624;2024-03-08T10:42:51;22.70;35.40
73121;DHT22;61307;49.628;-1.624;2024-03-08T10:45:30;22.80;35.40
73121;DHT22;61307;49.628;-1.624;2024-03-08T10:48:09;22.80;35.40
73121;DHT22;61307;49.628;-1.624;2024-03-08T10:50:38;22.80;35.40
73121;DHT22;61307;49.628;-1.624;2024-03-08T10:53:06;22.80;35.40
73121;DHT22;61307;49.628;-1.624;2024-03-08T10:55:37;22.80;35.40
73121;DHT22;61307;49.628;-1.624;2024-03-08T10:58:07;22.80;35.40
73121;DHT22;61307;49.628;-1.624;2024-03-08T11:00:35;22.80;35.40
73121;DHT22;61307;49.628;-1.624;2024-03-08T11:03:03;22.80;35.40
73121;DHT22;61307;49.628;-1.624;2024-03-08T11:05:38;22.80;35.40
73121;DHT22;61307;49.628;-1.624;2024-03-08T11:08:16;22.80;35.30
73121;DHT22;61307;49.628;-1.624;2024-03-08T11:10:50;22.80;35.40
73121;DHT22;61307;49.628;-1.624;2024-03-08T11:13:36;22.80;35.40
73121;DHT22;61307;49.628;-1.624;2024-03-08T11:16:07;22.80;35.40
73121;DHT22;61307;49.628;-1.624;2024-03-08T11:18:35;22.90;35.40
73121;DHT22;61307;49.628;-1.624;2024-03-08T11:21:03;22.90;35.50
73121;DHT22;61307;49.628;-1.624;2024-03-08T11:23:32;22.90;35.40
73121;DHT22;61307;49.628;-1.624;2024-03-08T11:26:01;22.90;35.40
73121;DHT22;61307;49.628;-1.624;2024-03-08T11:28:31;22.90;35.20
73121;DHT22;61307;49.628;-1.624;2024-03-08T11:31:23;22.90;35.20
73121;DHT22;61307;49.628;-1.624;2024-03-08T11:33:50;22.90;35.10
73121;DHT22;61307;49.628;-1.624;2024-03-08T11:36:21;22.90;35.10
73121;DHT22;61307;49.628;-1.624;2024-03-08T11:38:49;22.90;35.10
73121;DHT22;61307;49.628;-1.624;2024-03-08T11:41:20;22.90;35.80
73121;DHT22;61307;49.628;-1.624;2024-03-08T11:43:47;22.90;35.10
73121;DHT22;61307;49.628;-1.624;2024-03-08T11:46:15;22.90;35.10
73121;DHT22;61307;49.628;-1.624;2024-03-08T11:48:44;22.90;35.20
73121;DHT22;61307;49.628;-1.624;2024-03-08T11:51:11;22.90;35.00
73121;DHT22;61307;49.628;-1.624;2024-03-08T11:53:39;22.90;35.00
73121;DHT22;61307;49.628;-1.624;2024-03-08T11:56:07;22.90;35.60
73121;DHT22;61307;49.628;-1.624;2024-03-08T11:58:38;22.90;34.90
73121;DHT22;61307;49.628;-1.624;2024-03-08T12:01:08;22.90;34.80
73121;DHT22;61307;49.628;-1.624;2024-03-08T12:03:43;22.90;34.80
73121;DHT22;61307;49.628;-1.624;2024-03-08T12:06:14;22.90;34.70
73121;DHT22;61307;49.628;-1.624;2024-03-08T12:08:41;22.90;34.80
73121;DHT22;61307;49.628;-1.624;2024-03-08T12:11:12;22.90;34.60
73121;DHT22;61307;49.628;-1.624;2024-03-08T12:13:49;22.90;34.60
73121;DHT22;61307;49.628;-1.624;2024-03-08T12:16:19;22.90;34.50
73121;DHT22;61307;49.628;-1.624;2024-03-08T12:18:53;22.90;34.50
73121;DHT22;61307;49.628;-1.624;2024-03-08T12:21:21;22.90;34.40
73121;DHT22;61307;49.628;-1.624;2024-03-08T12:24:03;22.90;34.40
73121;DHT22;61307;49.628;-1.624;2024-03-08T12:26:31;22.90;34.40
73121;DHT22;61307;49.628;-1.624;2024-03-08T12:29:15;22.90;34.40
73121;DHT22;61307;49.628;-1.624;2024-03-08T12:31:43;22.90;34.30
73121;DHT22;61307;49.628;-1.624;2024-03-08T12:34:10;23.00;34.40
73121;DHT22;61307;49.628;-1.624;2024-03-08T12:36:44;22.90;34.20
73121;DHT22;61307;49.628;-1.624;2024-03-08T12:39:13;22.90;34.20
73121;DHT22;61307;49.628;-1.624;2024-03-08T12:41:41;22.90;34.20
73121;DHT22;61307;49.628;-1.624;2024-03-08T12:44:09;22.90;34.40
73121;DHT22;61307;49.628;-1.624;2024-03-08T12:46:38;22.90;34.40
73121;DHT22;61307;49.628;-1.624;2024-03-08T12:49:08;22.90;34.50
73121;DHT22;61307;49.628;-1.624;2024-03-08T12:51:36;22.90;34.50
73121;DHT22;61307;49.628;-1.624;2024-03-08T12:54:04;23.00;34.70
73121;DHT22;61307;49.628;-1.624;2024-03-08T12:56:33;23.00;34.80
73121;DHT22;61307;49.628;-1.624;2024-03-08T12:59:01;23.00;34.80
73121;DHT22;61307;49.628;-1.624;2024-03-08T13:01:28;23.00;34.80
73121;DHT22;61307;49.628;-1.624;2024-03-08T13:03:58;23.00;34.80
73121;DHT22;61307;49.628;-1.624;2024-03-08T13:06:26;23.00;34.80
73121;DHT22;61307;49.628;-1.624;2024-03-08T13:08:54;23.00;34.90
73121;DHT22;61307;49.628;-1.624;2024-03-08T13:11:22;23.10;35.70
73121;DHT22;61307;49.628;-1.624;2024-03-08T13:13:50;23.10;35.00
73121;DHT22;61307;49.628;-1.624;2024-03-08T13:16:17;23.20;35.00
73121;DHT22;61307;49.628;-1.624;2024-03-08T13:18:45;23.20;35.10
73121;DHT22;61307;49.628;-1.624;2024-03-08T13:21:15;23.20;35.00
73121;DHT22;61307;49.628;-1.624;2024-03-08T13:23:45;23.20;34.90
73121;DHT22;61307;49.628;-1.624;2024-03-08T13:26:15;23.30;34.90
73121;DHT22;61307;49.628;-1.624;2024-03-08T13:28:46;23.30;34.80
73121;DHT22;61307;49.628;-1.624;2024-03-08T13:31:14;23.40;34.70
73121;DHT22;61307;49.628;-1.624;2024-03-08T13:33:41;23.40;34.60
73121;DHT22;61307;49.628;-1.624;2024-03-08T13:36:12;23.50;34.80
73121;DHT22;61307;49.628;-1.624;2024-03-08T13:38:44;23.60;34.90
73121;DHT22;61307;49.628;-1.624;2024-03-08T13:41:12;23.60;34.90
73121;DHT22;61307;49.628;-1.624;2024-03-08T13:43:40;23.60;34.90
73121;DHT22;61307;49.628;-1.624;2024-03-08T13:46:08;23.70;34.90
73121;DHT22;61307;49.628;-1.624;2024-03-08T13:48:38;23.70;34.80
73121;DHT22;61307;49.628;-1.624;2024-03-08T13:51:07;23.70;34.80
73121;DHT22;61307;49.628;-1.624;2024-03-08T13:53:36;23.80;34.70
73121;DHT22;61307;49.628;-1.624;2024-03-08T13:56:04;23.70;34.70
73121;DHT22;61307;49.628;-1.624;2024-03-08T13:58:36;23.70;34.70
73121;DHT22;61307;49.628;-1.624;2024-03-08T14:01:03;23.70;34.80
73121;DHT22;61307;49.628;-1.624;2024-03-08T14:03:37;23.70;34.60
73121;DHT22;61307;49.628;-1.624;2024-03-08T14:06:04;23.70;34.50
73121;DHT22;61307;49.628;-1.624;2024-03-08T14:08:32;23.70;34.50
73121;DHT22;61307;49.628;-1.624;2024-03-08T14:10:59;23.80;34.60
73121;DHT22;61307;49.628;-1.624;2024-03-08T14:13:40;23.70;34.50
73121;DHT22;61307;49.628;-1.624;2024-03-08T14:16:08;23.70;34.50
73121;DHT22;61307;49.628;-1.624;2024-03-08T14:18:36;23.80;35.40
73121;DHT22;61307;49.628;-1.624;2024-03-08T14:21:04;23.80;34.80
73121;DHT22;61307;49.628;-1.624;2024-03-08T14:23:33;23.80;34.80
73121;DHT22;61307;49.628;-1.624;2024-03-08T14:26:04;23.90;34.90
73121;DHT22;61307;49.628;-1.624;2024-03-08T14:28:33;23.90;34.90
73121;DHT22;61307;49.628;-1.624;2024-03-08T14:31:01;23.90;34.80
73121;DHT22;61307;49.628;-1.624;2024-03-08T14:33:29;24.00;34.70
73121;DHT22;61307;49.628;-1.624;2024-03-08T14:35:58;24.00;34.70
73121;DHT22;61307;49.628;-1.624;2024-03-08T14:38:30;24.00;34.70
73121;DHT22;61307;49.628;-1.624;2024-03-08T14:41:04;24.00;34.80
73121;DHT22;61307;49.628;-1.624;2024-03-08T14:43:35;24.00;34.70
73121;DHT22;61307;49.628;-1.624;2024-03-08T14:46:05;24.00;34.70
73121;DHT22;61307;49.628;-1.624;2024-03-08T14:48:34;24.00;34.70
73121;DHT22;61307;49.628;-1.624;2024-03-08T14:51:03;24.00;34.70
73121;DHT22;61307;49.628;-1.624;2024-03-08T14:53:36;24.00;34.70
73121;DHT22;61307;49.628;-1.624;2024-03-08T14:56:06;23.90;34.70
73121;DHT22;61307;49.628;-1.624;2024-03-08T14:58:44;23.90;34.70
73121;DHT22;61307;49.628;-1.624;2024-03-08T15:01:18;23.90;34.70
73121;DHT22;61307;49.628;-1.624;2024-03-08T15:03:51;23.90;34.90
73121;DHT22;61307;49.628;-1.624;2024-03-08T15:06:24;23.90;35.00
73121;DHT22;61307;49.628;-1.624;2024-03-08T15:08:53;23.80;35.00
73121;DHT22;61307;49.628;-1.624;2024-03-08T15:11:24;23.80;35.10
73121;DHT22;61307;49.628;-1.624;2024-03-08T15:13:51;23.80;35.20
73121;DHT22;61307;49.628;-1.624;2024-03-08T15:16:21;23.80;35.20
73121;DHT22;61307;49.628;-1.624;2024-03-08T15:18:51;23.80;35.20
73121;DHT22;61307;49.628;-1.624;2024-03-08T15:21:20;23.80;35.20
73121;DHT22;61307;49.628;-1.624;2024-03-08T15:23:48;23.70;35.10